Nearby METAR Reports

 

KSEE - San Diego/Santee, California, USA
Distance from station: E 4mi, 6km
Updated: Mon, 28-Sep-2020 2:55am PDT
Clear
Clear
 Wind from calm
Wind: Calm
Temperature: 63°F , 17°C
Dew Point: 57°F , 14°C
Humidity: 83%
Barometer: 29.87 inHg , 1011.5 hPa
Clouds: Clear
Visibility: 10 miles , 16 km
2020/09/28 09:55 KSEE 280955Z AUTO 00000KT 10SM CLR 17/14 A2987 RMK AO2
KMYF - San Diego/Mntgmy, California, USA
Distance from station: W 6mi, 10km
Updated: Mon, 28-Sep-2020 2:53am PDT
Clear
Clear
 Wind from N
Wind: N 3 mph , 6 km/h
Temperature: 66°F , 19°C
Dew Point: 61°F , 16°C
Humidity: 83%
Barometer: 29.88 inHg , 1011.9 hPa
Clouds: Clear
Visibility: 10 miles , 16 km
2020/09/28 09:53 KMYF 280953Z AUTO 35003KT 10SM CLR 19/16 A2988 RMK AO2 SLP113 T01890156
 
KNKX - Miramar Nas/San, California, USA
Distance from station: WNW 7mi, 11km
Updated: Sun, 27-Sep-2020 9:55pm PDT
NOT Current
Clear
Clear
 Wind from NNW
Wind: NNW 3 mph , 6 km/h
Temperature: 64°F , 18°C
Dew Point: 63°F , 17°C
Humidity: 94%
Barometer: 29.89 inHg , 1012.2 hPa
Clouds: Clear
Visibility: 10 miles , 16 km
2020/09/28 04:55 KNKX 280455Z 33003KT 10SM CLR 18/17 A2989 RMK AO2 SLP116 T01830172 $
KSAN - San Diego, California, USA
Distance from station: WSW 11mi, 17km
Updated: Mon, 28-Sep-2020 2:51am PDT
Clear
Clear
 Wind from calm
Wind: Calm
Temperature: 64°F , 18°C
Dew Point: 61°F , 16°C
Humidity: 88%
Barometer: 29.89 inHg , 1012.2 hPa
Clouds: Clear
Visibility: 10 miles , 16 km
2020/09/28 09:51 KSAN 280951Z 00000KT 10SM CLR 18/16 A2989 RMK AO2 SLP119 T01830156
 
KNZY - North Island Nas, California, USA
Distance from station: SW 13mi, 22km
Updated: Sun, 27-Sep-2020 10:52pm PDT
NOT Current
Clear
Clear
 Wind from calm
Wind: Calm
Temperature: 66°F , 19°C
Dew Point: 61°F , 16°C
Humidity: 83%
Barometer: 29.88 inHg , 1011.9 hPa
Clouds: Clear
Visibility: 10 miles , 16 km
2020/09/28 05:52 KNZY 280552Z AUTO 00000KT 10SM CLR 19/16 A2988 RMK AO2 SLP118 T01940161 10222 20194 50006
KRNM - Ramona, California, USA
Distance from station: NNE 16mi, 26km
Updated: Mon, 28-Sep-2020 2:53am PDT
Few Clouds
Few Clouds
 Wind from calm
Wind: Calm
Temperature: 55°F , 13°C
Dew Point: 55°F , 13°C
Humidity: 100%
Barometer: 29.90 inHg , 1012.5 hPa
Clouds: Few Clouds
Visibility: 7 miles , 11 km
Cloud details: Few Clouds 500 ft
2020/09/28 09:53 KRNM 280953Z AUTO 00000KT 7SM FEW005 13/13 A2990 RMK AO2 SLP111 T01330128
 
KSDM - San Diego/Brown, California, USA
Distance from station: S 16mi, 26km
Updated: Mon, 28-Sep-2020 2:53am PDT
Clear
Clear
 Wind from calm
Wind: Calm
Temperature: 61°F , 16°C
Dew Point: 57°F , 14°C
Humidity: 88%
Barometer: 29.88 inHg , 1011.9 hPa
Clouds: Clear
Visibility: 8 miles , 13 km
2020/09/28 09:53 KSDM 280953Z AUTO 00000KT 8SM CLR 16/14 A2988 RMK AO2 SLP113 T01560144 $
KNRS - Imperial Beach, California, USA
Distance from station: SSW 18mi, 29km
Updated: Sun, 27-Sep-2020 10:56pm PDT
NOT Current
Few Clouds
Few Clouds
 
Barometer: 29.90 inHg , 1012.5 hPa
Clouds: Few Clouds
Visibility: 7 miles , 11 km
Cloud details: Few Clouds 1200 ft
2020/09/28 05:56 KNRS 280556Z AUTO 7SM FEW012 A2990 RMK AO2 SLP126 51007 $
 
MMTJ - Tijuana Intl Arp, Mexico
Distance from station: S 20mi, 32km
Updated: Mon, 28-Sep-2020 1:44am PDT
NOT Current
Clear
Clear
 Wind from calm
Wind: Calm
Temperature: 63°F , 17°C
Dew Point: 57°F , 14°C
Humidity: 83%
Barometer: 29.92 inHg , 1013.2 hPa
Clouds: Clear
Visibility: 10 miles , 16 km
2020/09/28 08:44 MMTJ 280844Z 00000KT 10SM SKC 17/14 A2992 RMK MSGTX MMMX
KCRQ - Carlsbad, California, USA
Distance from station: NW 26mi, 43km
Updated: Mon, 28-Sep-2020 2:53am PDT
Clear
Clear
 Wind from calm
Wind: Calm
Temperature: 64°F , 18°C
Dew Point: 61°F , 16°C
Humidity: 88%
Barometer: 29.87 inHg , 1011.5 hPa
Clouds: Clear
Visibility: 8 miles , 13 km
2020/09/28 09:53 KCRQ 280953Z AUTO 00000KT 8SM CLR 18/16 A2987 RMK AO2 SLP111 T01780156
 
KOKB - Oceanside, California, USA
Distance from station: NW 33mi, 54km
Updated: Mon, 28-Sep-2020 2:52am PDT
Mist, Clear
Mist, Clear
 Wind from calm
Wind: Calm
Temperature: 57°F , 14°C
Dew Point: 57°F , 14°C
Humidity: 100%
Barometer: 29.87 inHg , 1011.5 hPa
Summary: Mist
Clouds: Clear
Visibility: 6 miles , 10 km
2020/09/28 09:52 KOKB 280952Z AUTO 00000KT 6SM BR CLR 14/14 A2987 RMK AO2 SLP113 T01440144
KCZZ - Campo, California, USA
Distance from station: ESE 35mi, 56km
Updated: Sun, 27-Sep-2020 10:52pm PDT
NOT Current

 Wind from NNE
Wind: NNE 3 mph , 6 km/h
Temperature: 57°F , 14°C
Dew Point: 45°F , 7°C
Humidity: 63%
Barometer: 29.94 inHg , 1013.9 hPa
2020/09/28 05:52 KCZZ 280552Z AUTO 02003KT 14/07 A2994 RMK AO1 SLP104 T01390072 10322 20139 51008
 
KNFG - Camp Pendleton, California, USA
Distance from station: NNW 37mi, 59km
Updated: Sun, 27-Sep-2020 10:55pm PDT
NOT Current
Clear
Clear
 Wind from calm
Wind: Calm
Temperature: 63°F , 17°C
Dew Point: 55°F , 13°C
Humidity: 77%
Barometer: 29.89 inHg , 1012.2 hPa
Clouds: Clear
Visibility: 8 miles , 13 km
2020/09/28 05:55 KNFG 280555Z AUTO 00000KT 8SM CLR 17/13 A2989 RMK AO2 SLPNO T01720128 10233 20167 51007 $
KRIV - Riverside/March, California, USA
Distance from station: N 74mi, 119km
Updated: Mon, 28-Sep-2020 2:58am PDT
Clear
Clear
 Wind from calm
Wind: Calm
Temperature: 57°F , 14°C
Dew Point: 55°F , 13°C
Humidity: 94%
Barometer: 29.91 inHg , 1012.9 hPa
Clouds: Clear
Visibility: 7 miles , 11 km
2020/09/28 09:58 KRIV 280958Z AUTO 00000KT 7SM CLR 14/13 A2991 RMK AO2 SLP115 T01400125 PWINO $
 
KTRM - Thermal/Palm Spg, California, USA
Distance from station: NE 75mi, 121km
Updated: Mon, 31-Aug-2020 7:52am PDT
NOT Current
Few Clouds
Few Clouds
 Wind from NNW
Wind: NNW 6 mph , 9 km/h
Temperature: 86°F , 30°C
Heat Index: 88°F , 31°C
Dew Point: 64°F , 18°C
Humidity: 49%
Barometer: 29.75 inHg , 1007.5 hPa
Clouds: Few Clouds
Visibility: 8 miles , 13 km
Cloud details: Few Clouds 3300 ft
2020/08/31 14:52 KTRM 311452Z AUTO 34005KT 8SM FEW033 30/18 A2975 RMK AO2 SLP076 T03000178 51010
KPSP - Palm Springs, California, USA
Distance from station: NNE 76mi, 122km
Updated: Mon, 28-Sep-2020 2:53am PDT
Clear
Clear
 Wind from N
Wind: N 7 mph , 11 km/h
Temperature: 79°F , 26°C
Dew Point: 55°F , 13°C
Humidity: 45%
Barometer: 29.84 inHg , 1010.5 hPa
Clouds: Clear
Visibility: 10 miles , 16 km
2020/09/28 09:53 KPSP 280953Z AUTO 35006KT 10SM CLR 26/13 A2984 RMK AO2 SLP101 T02560133 $
 
KSNA - Costa Mesa, California, USA
Distance from station: NW 76mi, 123km
Updated: Mon, 28-Sep-2020 2:53am PDT
Overcast
Overcast
 Wind from calm
Wind: Calm
Temperature: 70°F , 21°C
Dew Point: 63°F , 17°C
Humidity: 78%
Barometer: 29.87 inHg , 1011.5 hPa
Clouds: Overcast
Visibility: 8 miles , 13 km
Cloud details: Overcast 1300 ft
2020/09/28 09:53 KSNA 280953Z AUTO 00000KT 8SM OVC013 21/17 A2987 RMK AO2 SLP115 T02110167
KNJK - El Centro Naf, California, USA
Distance from station: E 79mi, 127km
Updated: Sat, 26-Sep-2020 2:56pm PDT
NOT Current
Clear
Clear
 Wind from E
Wind: E 7 mph , 11 km/h
Temperature: 102°F , 39°C
Dew Point: 52°F , 11°C
Humidity: 18%
Barometer: 29.76 inHg , 1007.8 hPa
Clouds: Clear
Visibility: 10 miles , 16 km
2020/09/26 21:56 KNJK 262156Z 10006KT 10SM CLR 39/11 A2976 RMK SLP095 T03880113
 
KAJO - Corona Muni, California, USA
Distance from station: NNW 82mi, 132km
Updated: Mon, 28-Sep-2020 2:56am PDT
Clear
Clear
 Wind from calm
Wind: Calm
Temperature: 59°F , 15°C
Dew Point: 57°F , 14°C
Humidity: 94%
Barometer: 29.90 inHg , 1012.5 hPa
Clouds: Clear
Visibility: 8 miles , 13 km
2020/09/28 09:56 KAJO 280956Z AUTO 00000KT 8SM CLR 15/14 A2990 RMK AO2 SLP119 T01500144